Time;durP1;ratioP1;P1;durP2;ratioP2;P2;SDS_P1;SDS_P2;PMS_P1;PMS_P2;Temp;Humidity;BMP_temperature;BMP_pressure;BME280_temperature;BME280_humidity;BME280_pressure;Samples;Min_cycle;Max_cycle;Signal;HPM_P1;HPM_P2
2023/03/23 00:31:46;;;;;;;9.55;8.38;;;11.10;99.90;;;;;;5655244;23;20039;-75
2023/03/23 00:34:24;;;;;;;9.38;8.30;;;11.10;99.90;;;;;;4937399;29;20055;-75
2023/03/23 00:36:53;;;;;;;11.32;8.20;;;11.00;99.90;;;;;;4921354;29;20085;-75
2023/03/23 00:39:19;;;;;;;12.30;7.88;;;11.00;99.90;;;;;;4937998;28;20039;-76
2023/03/23 00:41:46;;;;;;;10.80;7.20;;;11.00;99.90;;;;;;4941417;28;20047;-75
2023/03/23 00:44:16;;;;;;;10.80;7.28;;;11.00;99.90;;;;;;4957119;28;20173;-76
2023/03/23 00:46:48;;;;;;;8.23;6.65;;;11.00;99.90;;;;;;4924180;28;20038;-76
2023/03/23 00:49:17;;;;;;;8.80;7.43;;;11.00;99.90;;;;;;4936488;28;20516;-76
2023/03/23 00:51:43;;;;;;;11.05;7.05;;;11.00;99.90;;;;;;4955632;28;20405;-76
2023/03/23 00:54:09;;;;;;;9.90;6.50;;;11.00;99.90;;;;;;4934898;28;20043;-76
2023/03/23 00:56:35;;;;;;;8.20;5.93;;;11.00;99.90;;;;;;4926206;29;20039;-76
2023/03/23 00:59:01;;;;;;;6.18;5.50;;;11.00;99.90;;;;;;4935818;28;20223;-76
2023/03/23 01:01:26;;;;;;;7.70;5.53;;;11.00;99.90;;;;;;4925675;29;20134;-76
2023/03/23 01:04:00;;;;;;;7.97;6.05;;;11.00;99.90;;;;;;4928072;28;20053;-76
2023/03/23 01:06:38;;;;;;;8.45;5.25;;;11.00;99.90;;;;;;4947191;28;20511;-76
2023/03/23 01:09:05;;;;;;;8.10;5.93;;;11.00;99.90;;;;;;4949497;28;20073;-76
2023/03/23 01:11:31;;;;;;;7.88;5.95;;;11.00;99.90;;;;;;4955178;28;20085;-76
2023/03/23 01:13:57;;;;;;;7.13;5.70;;;11.00;99.90;;;;;;4937388;28;20066;-76
2023/03/23 01:16:23;;;;;;;10.25;5.80;;;11.00;99.90;;;;;;4944420;28;20085;-75
2023/03/23 01:18:49;;;;;;;8.25;5.50;;;11.00;99.90;;;;;;4950955;28;20035;-76
2023/03/23 01:21:17;;;;;;;8.23;5.40;;;11.00;99.90;;;;;;4939193;28;20038;-76
2023/03/23 01:23:44;;;;;;;5.70;4.40;;;11.00;99.90;;;;;;4929958;28;20406;-76
2023/03/23 01:26:19;;;;;;;6.75;5.32;;;11.00;99.90;;;;;;4927046;28;20273;-76
2023/03/23 01:28:46;;;;;;;7.13;5.25;;;11.10;99.90;;;;;;4926079;28;20043;-76
2023/03/23 01:31:14;;;;;;;7.75;5.43;;;11.10;99.90;;;;;;4954919;28;20512;-76
2023/03/23 01:33:41;;;;;;;8.95;5.55;;;11.10;99.90;;;;;;4933825;28;20484;-75
2023/03/23 01:36:12;;;;;;;6.05;5.03;;;11.10;99.90;;;;;;4928796;28;20540;-76
2023/03/23 01:38:38;;;;;;;9.80;5.88;;;11.10;99.90;;;;;;4933060;28;20093;-75
2023/03/23 01:41:04;;;;;;;6.47;5.05;;;11.20;99.90;;;;;;4932246;28;20070;-76
2023/03/23 01:43:30;;;;;;;6.13;5.53;;;11.10;99.90;;;;;;4932737;29;20043;-76
2023/03/23 01:45:56;;;;;;;7.30;5.40;;;11.10;99.90;;;;;;4939339;29;20039;-75
2023/03/23 01:48:27;;;;;;;8.20;5.93;;;11.20;99.90;;;;;;4934603;28;20043;-76
2023/03/23 01:51:01;;;;;;;8.15;5.68;;;11.20;99.90;;;;;;4941844;29;20040;-75
2023/03/23 01:53:33;;;;;;;7.07;5.20;;;11.20;99.90;;;;;;4916852;28;20030;-76
2023/03/23 01:56:00;;;;;;;6.45;4.60;;;11.10;99.90;;;;;;4925993;29;20035;-75
2023/03/23 01:58:30;;;;;;;9.02;5.10;;;11.10;99.90;;;;;;4924964;28;20046;-76
2023/03/23 02:01:00;;;;;;;6.57;5.18;;;11.10;99.90;;;;;;4930289;28;20070;-76
2023/03/23 02:03:28;;;;;;;6.78;4.88;;;11.10;99.90;;;;;;4951618;28;20043;-76
2023/03/23 02:05:58;;;;;;;7.00;4.72;;;11.10;99.90;;;;;;4946404;29;20043;-75
2023/03/23 02:08:26;;;;;;;7.40;4.40;;;11.10;99.90;;;;;;4955778;28;20054;-75
2023/03/23 02:10:52;;;;;;;7.25;4.72;;;11.10;99.90;;;;;;4943858;29;20133;-76
2023/03/23 02:13:18;;;;;;;6.60;4.30;;;11.10;99.90;;;;;;4935581;28;20087;-75
2023/03/23 02:16:12;;;;;;;7.10;4.28;;;11.10;99.90;;;;;;4920665;29;20031;-75
2023/03/23 02:18:43;;;;;;;7.75;4.55;;;11.10;99.90;;;;;;4931486;28;20058;-76
2023/03/23 02:21:36;;;;;;;7.78;4.53;;;11.10;99.90;;;;;;4958438;28;20552;-75
2023/03/23 02:24:20;;;;;;;6.60;4.38;;;11.10;99.90;;;;;;4949655;29;20090;-76
2023/03/23 02:27:08;;;;;;;5.38;4.28;;;11.10;99.90;;;;;;4942009;29;20074;-76
2023/03/23 02:30:00;;;;;;;5.95;4.45;;;11.00;99.90;;;;;;4921875;28;20061;-76
2023/03/23 02:33:10;;;;;;;5.55;3.90;;;11.00;99.90;;;;;;4942351;28;20030;-76
2023/03/23 02:35:42;;;;;;;8.63;4.60;;;11.00;99.90;;;;;;4920980;28;20098;-75
2023/03/23 02:38:18;;;;;;;6.28;3.83;;;11.00;99.90;;;;;;4927955;28;20048;-76
2023/03/23 02:40:47;;;;;;;7.78;4.50;;;11.00;99.90;;;;;;4944893;28;20047;-76
2023/03/23 02:43:19;;;;;;;7.57;4.10;;;11.00;99.90;;;;;;4958041;28;20524;-76
2023/03/23 02:45:46;;;;;;;6.78;4.57;;;11.00;99.90;;;;;;4933695;28;20039;-75
2023/03/23 02:48:15;;;;;;;6.50;4.15;;;10.90;99.90;;;;;;4937412;28;20498;-76
2023/03/23 02:50:45;;;;;;;7.60;4.20;;;10.90;99.90;;;;;;4940692;29;20055;-75
2023/03/23 02:53:13;;;;;;;6.43;4.30;;;11.00;99.90;;;;;;4945844;28;20039;-76
2023/03/23 02:55:43;;;;;;;6.68;4.43;;;11.00;99.90;;;;;;4917851;29;20071;-75
2023/03/23 02:58:10;;;;;;;5.70;4.20;;;11.00;99.90;;;;;;4920809;28;20054;-75
2023/03/23 03:00:38;;;;;;;5.68;4.25;;;11.00;99.90;;;;;;4941554;28;20034;-75
2023/03/23 03:03:10;;;;;;;7.15;4.50;;;11.00;99.90;;;;;;4942185;28;20043;-75
2023/03/23 03:06:01;;;;;;;6.90;4.32;;;11.00;99.90;;;;;;4928054;28;20046;-75
2023/03/23 03:08:48;;;;;;;5.85;4.40;;;11.00;99.90;;;;;;4926736;28;20039;-75
2023/03/23 03:11:18;;;;;;;6.88;4.45;;;10.90;99.90;;;;;;4955717;28;20126;-76
2023/03/23 03:14:08;;;;;;;5.97;4.30;;;11.00;99.90;;;;;;4957716;28;20081;-76
2023/03/23 03:16:45;;;;;;;5.70;4.30;;;11.00;99.90;;;;;;4922785;29;20047;-76
2023/03/23 03:19:25;;;;;;;7.13;4.65;;;11.00;99.90;;;;;;4932986;28;20032;-76
2023/03/23 03:21:53;;;;;;;7.45;4.93;;;11.10;99.90;;;;;;4940549;28;20111;-75
2023/03/23 03:24:21;;;;;;;6.38;4.40;;;11.00;99.90;;;;;;4939651;28;20043;-75
2023/03/23 03:26:51;;;;;;;6.47;4.40;;;11.10;99.90;;;;;;4918958;29;20095;-75
2023/03/23 03:29:21;;;;;;;5.90;4.53;;;11.10;99.90;;;;;;4923605;28;20126;-75
2023/03/23 03:31:49;;;;;;;5.75;4.88;;;11.00;99.90;;;;;;4956774;28;20378;-75
2023/03/23 03:34:17;;;;;;;7.05;5.53;;;11.00;99.90;;;;;;4941081;28;20513;-75
2023/03/23 03:36:45;;;;;;;5.00;4.50;;;11.10;99.90;;;;;;4924059;29;20038;-75
2023/03/23 03:39:14;;;;;;;6.00;4.72;;;11.10;99.90;;;;;;4919793;28;20035;-76
2023/03/23 03:41:41;;;;;;;7.47;4.88;;;11.10;99.90;;;;;;4931993;28;20089;-75
2023/03/23 03:44:07;;;;;;;5.72;4.78;;;11.20;99.90;;;;;;4948478;28;20464;-75
2023/03/23 03:46:35;;;;;;;7.38;5.28;;;11.20;99.90;;;;;;4933108;28;20077;-76
2023/03/23 03:49:02;;;;;;;6.57;4.72;;;11.10;99.90;;;;;;4939114;29;20039;-76
2023/03/23 03:51:30;;;;;;;6.70;5.32;;;11.10;99.90;;;;;;4937444;29;20038;-75
2023/03/23 03:53:56;;;;;;;7.13;5.32;;;11.10;99.90;;;;;;4937470;29;20410;-75
2023/03/23 03:56:22;;;;;;;7.10;5.15;;;11.00;99.90;;;;;;4944768;28;20038;-75
2023/03/23 03:58:49;;;;;;;7.70;5.13;;;11.10;99.90;;;;;;4933875;29;20490;-76
2023/03/23 04:01:15;;;;;;;6.05;5.10;;;11.10;99.90;;;;;;4936786;28;20039;-75
2023/03/23 04:03:41;;;;;;;7.30;5.72;;;11.10;99.90;;;;;;4956731;28;20050;-75
2023/03/23 04:06:12;;;;;;;6.50;5.25;;;11.10;99.90;;;;;;4948341;28;20035;-76
2023/03/23 04:08:39;;;;;;;8.30;5.45;;;11.20;99.90;;;;;;4940081;28;20050;-75
2023/03/23 04:11:05;;;;;;;6.20;5.05;;;11.20;99.90;;;;;;4949959;28;20085;-75
2023/03/23 04:13:31;;;;;;;8.15;5.07;;;11.30;99.90;;;;;;4940512;28;20045;-75
2023/03/23 04:15:56;;;;;;;6.95;4.90;;;11.30;99.90;;;;;;4956605;28;20129;-76
2023/03/23 04:18:23;;;;;;;6.78;5.40;;;11.30;99.90;;;;;;4933150;28;20042;-75
2023/03/23 04:20:49;;;;;;;5.78;4.90;;;11.30;99.90;;;;;;4945849;28;20038;-75
2023/03/23 04:23:19;;;;;;;7.00;5.70;;;11.30;99.90;;;;;;4952879;28;20505;-75
2023/03/23 04:25:49;;;;;;;7.63;5.82;;;11.20;99.90;;;;;;4940440;28;20082;-75
2023/03/23 04:28:18;;;;;;;8.10;5.45;;;11.10;99.90;;;;;;4935734;28;20059;-76
2023/03/23 04:30:44;;;;;;;7.30;5.38;;;11.00;99.90;;;;;;4936058;28;20093;-75
2023/03/23 04:33:14;;;;;;;6.20;5.30;;;11.00;99.90;;;;;;4938979;29;20405;-75
2023/03/23 04:35:41;;;;;;;8.65;5.65;;;11.00;99.90;;;;;;4936729;29;20035;-75
2023/03/23 04:38:07;;;;;;;8.43;5.95;;;11.00;99.90;;;;;;4937072;28;20051;-76
2023/03/23 04:40:36;;;;;;;8.05;5.65;;;11.00;99.90;;;;;;4931300;28;20082;-76
2023/03/23 04:43:05;;;;;;;8.95;5.85;;;11.00;99.90;;;;;;4955517;28;20049;-75
2023/03/23 04:45:32;;;;;;;10.30;5.97;;;10.90;99.90;;;;;;4956034;28;20137;-76
2023/03/23 04:47:58;;;;;;;7.85;6.13;;;10.90;99.90;;;;;;4951048;28;20064;-76
2023/03/23 04:50:30;;;;;;;10.88;6.75;;;10.80;99.90;;;;;;4949569;28;20563;-76
2023/03/23 04:52:58;;;;;;;9.63;6.07;;;10.70;99.90;;;;;;4955366;28;20057;-76
2023/03/23 04:55:25;;;;;;;14.60;7.25;;;10.60;99.90;;;;;;4955946;28;20121;-76
2023/03/23 04:57:50;;;;;;;13.02;7.55;;;10.60;99.90;;;;;;4953030;28;20053;-75
2023/03/23 05:00:16;;;;;;;9.00;6.88;;;10.50;99.90;;;;;;4948626;28;20047;-75
2023/03/23 05:02:44;;;;;;;10.32;7.15;;;10.50;99.90;;;;;;4955257;28;20047;-76
2023/03/23 05:05:11;;;;;;;9.20;6.80;;;10.50;99.90;;;;;;4955675;28;20054;-76
2023/03/23 05:07:38;;;;;;;9.10;6.97;;;10.40;99.90;;;;;;4948140;28;20493;-76
2023/03/23 05:10:05;;;;;;;11.93;7.13;;;10.30;99.90;;;;;;4929804;28;20035;-76
2023/03/23 05:12:31;;;;;;;9.63;5.93;;;10.30;99.90;;;;;;4955101;28;20050;-76
2023/03/23 05:14:57;;;;;;;9.98;6.50;;;10.30;99.90;;;;;;4955458;28;20409;-76
2023/03/23 05:17:23;;;;;;;9.20;6.00;;;10.20;99.90;;;;;;4932650;28;20046;-76
2023/03/23 05:19:52;;;;;;;12.98;7.13;;;10.20;99.90;;;;;;4933045;28;20413;-77
2023/03/23 05:22:20;;;;;;;8.57;6.25;;;10.20;99.90;;;;;;4955335;28;20154;-77
2023/03/23 05:24:47;;;;;;;10.13;6.95;;;10.20;99.90;;;;;;4955422;28;20047;-77
2023/03/23 05:27:14;;;;;;;7.78;6.07;;;10.20;99.90;;;;;;4932933;28;20036;-77
2023/03/23 05:29:40;;;;;;;9.20;5.85;;;10.20;99.90;;;;;;4946630;28;20085;-77
2023/03/23 05:32:07;;;;;;;7.13;4.78;;;10.20;99.90;;;;;;4946542;29;20123;-76
2023/03/23 05:34:34;;;;;;;7.60;5.03;;;10.30;99.90;;;;;;4920389;29;20035;-77
2023/03/23 05:37:01;;;;;;;6.65;4.75;;;10.30;99.90;;;;;;4922179;29;20047;-76
2023/03/23 05:39:27;;;;;;;6.70;4.32;;;10.30;99.90;;;;;;4929949;28;20089;-76
2023/03/23 05:41:53;;;;;;;8.50;5.38;;;10.30;99.90;;;;;;4929511;29;20081;-76
2023/03/23 05:44:19;;;;;;;7.97;3.72;;;10.30;99.90;;;;;;4938131;29;20047;-76
2023/03/23 05:46:45;;;;;;;6.70;3.15;;;10.30;99.90;;;;;;4923557;29;20083;-76
2023/03/23 05:49:11;;;;;;;8.38;3.50;;;10.20;99.90;;;;;;4947658;28;20465;-77
2023/03/23 05:51:36;;;;;;;6.22;2.88;;;10.20;99.90;;;;;;4946522;28;20035;-77
2023/03/23 05:54:03;;;;;;;6.70;2.88;;;10.20;99.90;;;;;;4958785;28;20035;-77
2023/03/23 05:56:30;;;;;;;6.57;2.75;;;10.10;99.90;;;;;;4958777;28;20042;-76
2023/03/23 05:58:56;;;;;;;4.85;2.60;;;10.10;99.90;;;;;;4931758;28;20042;-77
2023/03/23 06:01:23;;;;;;;5.05;3.17;;;10.10;99.90;;;;;;4940512;28;20546;-76
2023/03/23 06:03:51;;;;;;;5.10;3.38;;;10.10;99.90;;;;;;4929200;28;20039;-76
2023/03/23 06:06:18;;;;;;;8.13;3.42;;;10.10;99.90;;;;;;4933302;28;20502;-76
2023/03/23 06:08:44;;;;;;;9.55;3.90;;;10.10;99.90;;;;;;4944708;28;20070;-77
2023/03/23 06:11:10;;;;;;;7.35;3.83;;;10.10;99.90;;;;;;4926952;28;20051;-77
2023/03/23 06:13:36;;;;;;;7.85;3.58;;;10.20;99.90;;;;;;4945813;28;20039;-76
2023/03/23 06:16:03;;;;;;;8.95;3.78;;;10.20;99.90;;;;;;4931899;29;20043;-77
2023/03/23 06:18:33;;;;;;;8.68;4.68;;;10.20;99.90;;;;;;4949978;28;20049;-75
2023/03/23 06:20:59;;;;;;;10.25;4.28;;;10.20;99.90;;;;;;4936768;29;20126;-76
2023/03/23 06:23:26;;;;;;;9.10;4.00;;;10.20;99.90;;;;;;4946331;29;20128;-78
2023/03/23 06:25:55;;;;;;;9.50;4.20;;;10.20;99.90;;;;;;4920225;29;20035;-75
2023/03/23 06:28:20;;;;;;;9.95;4.18;;;10.20;99.90;;;;;;4938981;29;20047;-77
2023/03/23 06:30:46;;;;;;;8.45;4.05;;;10.20;99.90;;;;;;4937842;28;20046;-75
2023/03/23 06:33:12;;;;;;;13.00;5.10;;;10.20;99.90;;;;;;4920772;28;20028;-74
2023/03/23 06:35:37;;;;;;;10.02;4.50;;;10.20;99.90;;;;;;4933704;28;20555;-74
2023/03/23 06:38:03;;;;;;;13.55;4.78;;;10.20;99.90;;;;;;4957398;28;20490;-74
2023/03/23 06:40:28;;;;;;;13.90;5.03;;;10.30;99.90;;;;;;4958068;28;20046;-75
2023/03/23 06:42:57;;;;;;;11.98;4.65;;;10.20;99.90;;;;;;4957859;28;20125;-74
2023/03/23 07:08:42;;;;;;;13.73;5.03;;;10.50;99.90;;;;;;4957962;28;20055;-80
2023/03/23 07:11:24;;;;;;;13.90;4.82;;;10.50;99.90;;;;;;4923285;29;20441;-78
2023/03/23 07:18:11;;;;;;;14.15;5.05;;;10.60;99.90;;;;;;4889734;29;20154;-80
2023/03/23 07:20:37;;;;;;;11.80;4.47;;;10.70;99.90;;;;;;4893553;23;20047;-74
2023/03/23 07:23:05;;;;;;;9.93;4.53;;;10.70;99.90;;;;;;4953239;28;20039;-74
2023/03/23 07:25:32;;;;;;;12.75;4.30;;;10.70;99.90;;;;;;4957038;28;20121;-74
2023/03/23 07:28:02;;;;;;;11.52;3.88;;;10.80;99.90;;;;;;4957040;28;20071;-73
2023/03/23 07:30:29;;;;;;;10.70;4.30;;;10.90;99.90;;;;;;4941165;28;20054;-74
2023/03/23 07:32:55;;;;;;;9.45;3.85;;;11.00;99.90;;;;;;4956882;28;20058;-74
2023/03/23 07:35:21;;;;;;;9.88;3.67;;;11.10;99.90;;;;;;4974370;28;20039;-74
2023/03/23 07:37:48;;;;;;;9.60;3.53;;;11.10;99.90;;;;;;4941152;28;20039;-74
2023/03/23 07:40:15;;;;;;;11.13;3.92;;;11.20;99.90;;;;;;4957279;28;20205;-74
2023/03/23 07:42:45;;;;;;;11.73;3.67;;;11.20;99.90;;;;;;4957000;28;20047;-74
2023/03/23 07:45:13;;;;;;;11.40;4.15;;;11.30;99.90;;;;;;4956943;28;20043;-73
2023/03/23 07:47:40;;;;;;;13.45;4.15;;;11.30;99.90;;;;;;4956747;28;20054;-74
2023/03/23 07:50:06;;;;;;;12.93;4.40;;;11.30;99.90;;;;;;4957029;28;20046;-73
2023/03/23 07:52:33;;;;;;;14.90;4.93;;;11.30;99.90;;;;;;4956608;28;20034;-73
2023/03/23 07:55:01;;;;;;;14.48;4.70;;;11.40;99.90;;;;;;4956783;28;20489;-73
2023/03/23 07:57:27;;;;;;;12.02;4.65;;;11.30;99.90;;;;;;4956702;28;20051;-74
2023/03/23 07:59:52;;;;;;;11.25;4.05;;;11.40;99.90;;;;;;4956954;28;20053;-74
2023/03/23 08:02:18;;;;;;;10.77;4.35;;;11.50;99.90;;;;;;4940399;28;20046;-74
2023/03/23 08:04:44;;;;;;;14.52;5.03;;;11.40;99.90;;;;;;4972552;28;20142;-74
2023/03/23 08:07:12;;;;;;;15.50;4.28;;;11.40;99.90;;;;;;4956010;28;20047;-74
2023/03/23 08:09:38;;;;;;;13.15;5.07;;;11.40;99.90;;;;;;4940495;28;20121;-74
2023/03/23 08:12:04;;;;;;;15.70;5.03;;;11.40;99.90;;;;;;4956194;28;20069;-74
2023/03/23 08:14:30;;;;;;;16.02;5.00;;;11.50;99.90;;;;;;4972484;28;20043;-74
2023/03/23 08:16:57;;;;;;;15.52;5.13;;;11.50;99.90;;;;;;4956279;28;20043;-74
2023/03/23 08:19:22;;;;;;;12.43;5.28;;;11.50;99.90;;;;;;4956203;28;20043;-74
2023/03/23 08:21:49;;;;;;;16.05;5.38;;;11.50;99.90;;;;;;4955814;28;20054;-74
2023/03/23 08:24:15;;;;;;;11.60;4.63;;;11.40;99.90;;;;;;4940412;28;20473;-74
2023/03/23 08:26:41;;;;;;;11.73;4.85;;;11.50;99.90;;;;;;4972191;28;20508;-74
2023/03/23 08:29:08;;;;;;;11.38;4.90;;;11.40;99.90;;;;;;4955996;28;20139;-74
2023/03/23 08:31:35;;;;;;;13.77;5.43;;;11.40;99.90;;;;;;4956136;28;20405;-74
2023/03/23 08:34:02;;;;;;;12.35;5.22;;;11.40;99.90;;;;;;4956065;28;20054;-74
2023/03/23 08:36:28;;;;;;;10.68;4.97;;;11.40;99.90;;;;;;4956322;28;20464;-74
2023/03/23 08:38:54;;;;;;;11.48;4.82;;;11.40;99.90;;;;;;4940270;28;20106;-74
2023/03/23 08:41:20;;;;;;;14.85;5.90;;;11.40;99.90;;;;;;4956172;28;20401;-74
2023/03/23 08:43:46;;;;;;;13.55;5.72;;;11.50;99.90;;;;;;4939861;28;20047;-74
2023/03/23 08:46:12;;;;;;;17.05;5.32;;;11.60;99.90;;;;;;4956105;28;20172;-74
2023/03/23 08:48:38;;;;;;;13.18;4.93;;;11.60;99.90;;;;;;4955524;28;20049;-74
2023/03/23 08:51:05;;;;;;;13.90;4.85;;;11.60;99.90;;;;;;4971583;28;20039;-73
2023/03/23 08:53:31;;;;;;;11.25;5.53;;;11.60;99.90;;;;;;4955876;28;20133;-73
2023/03/23 08:56:04;;;;;;;12.88;5.18;;;11.50;99.90;;;;;;4955704;28;20078;-73
2023/03/23 08:58:30;;;;;;;9.88;4.80;;;11.50;99.90;;;;;;4955645;28;20057;-73
2023/03/23 09:00:55;;;;;;;12.75;5.13;;;11.50;99.90;;;;;;4955245;28;20061;-73
2023/03/23 09:03:21;;;;;;;13.27;5.45;;;11.50;99.90;;;;;;4971707;28;20046;-73
2023/03/23 09:05:46;;;;;;;13.43;5.25;;;11.50;99.90;;;;;;4971901;28;20034;-73
2023/03/23 09:08:15;;;;;;;10.77;4.65;;;11.60;99.90;;;;;;4955625;28;20039;-73
2023/03/23 09:10:40;;;;;;;15.18;5.28;;;11.60;99.90;;;;;;4955330;28;20038;-73
2023/03/23 09:13:06;;;;;;;10.65;5.00;;;11.60;99.90;;;;;;4971831;28;20050;-73
2023/03/23 09:15:32;;;;;;;10.38;4.72;;;11.70;99.90;;;;;;4971476;28;20043;-73
2023/03/23 09:17:58;;;;;;;15.45;5.40;;;11.60;99.90;;;;;;4955674;28;20051;-73
2023/03/23 09:20:26;;;;;;;12.10;5.28;;;11.60;99.90;;;;;;4975541;28;20449;-74
2023/03/23 09:22:56;;;;;;;16.30;6.35;;;11.50;99.90;;;;;;4959283;28;20512;-74
2023/03/23 09:25:25;;;;;;;12.73;6.43;;;11.60;99.90;;;;;;4959477;28;20070;-73
2023/03/23 09:27:58;;;;;;;14.15;5.60;;;11.90;99.90;;;;;;4959186;28;20047;-73
2023/03/23 09:30:30;;;;;;;11.95;5.40;;;12.50;99.90;;;;;;4959531;28;20038;-73
2023/03/23 09:32:57;;;;;;;10.65;4.05;;;13.00;99.90;;;;;;4959405;28;20393;-73
2023/03/23 09:35:23;;;;;;;13.60;3.90;;;13.40;99.90;;;;;;4959631;28;20039;-73
2023/03/23 09:37:50;;;;;;;10.13;3.47;;;14.00;99.90;;;;;;4959199;28;20058;-73
2023/03/23 09:40:27;;;;;;;9.68;3.50;;;14.70;99.90;;;;;;4959137;28;20529;-73
2023/03/23 09:43:02;;;;;;;7.57;3.30;;;15.10;99.90;;;;;;4942868;28;20042;-73
2023/03/23 09:45:51;;;;;;;12.68;3.97;;;15.50;99.90;;;;;;4959066;28;20129;-73
2023/03/23 09:48:29;;;;;;;10.43;3.47;;;15.90;99.90;;;;;;4958980;28;20134;-73
2023/03/23 09:51:12;;;;;;;6.72;3.05;;;15.90;99.90;;;;;;4942962;28;20201;-73
2023/03/23 09:53:42;;;;;;;10.70;3.42;;;16.00;99.90;;;;;;4942878;28;20038;-73
2023/03/23 09:56:14;;;;;;;5.78;2.40;;;16.10;99.90;;;;;;4959135;28;20129;-74
2023/03/23 09:58:49;;;;;;;8.02;2.50;;;16.10;99.90;;;;;;4974821;28;20056;-74
2023/03/23 10:01:17;;;;;;;7.50;2.58;;;16.00;99.90;;;;;;4942695;28;20042;-73
2023/03/23 10:03:45;;;;;;;6.10;2.80;;;15.70;99.90;;;;;;4958784;28;20042;-73
2023/03/23 10:06:15;;;;;;;7.60;2.67;;;15.00;99.90;;;;;;4958759;28;20085;-74
2023/03/23 10:08:46;;;;;;;8.35;2.65;;;14.30;99.90;;;;;;4942587;28;20122;-73
2023/03/23 10:11:24;;;;;;;10.38;3.25;;;13.60;99.90;;;;;;4958640;28;20047;-74
2023/03/23 10:14:10;;;;;;;8.88;3.40;;;13.20;99.90;;;;;;4974469;28;20045;-73
2023/03/23 10:16:45;;;;;;;8.40;3.17;;;13.10;99.90;;;;;;4974529;28;20046;-73
2023/03/23 10:19:47;;;;;;;9.20;3.17;;;13.30;99.90;;;;;;4942559;28;20046;-73
2023/03/23 10:22:19;;;;;;;8.45;2.90;;;13.20;99.90;;;;;;4958337;28;20166;-73
2023/03/23 10:25:01;;;;;;;8.68;3.10;;;13.10;99.90;;;;;;4942494;28;20069;-73
2023/03/23 10:28:08;;;;;;;9.80;3.00;;;13.40;99.90;;;;;;4958418;28;20150;-73
2023/03/23 10:30:41;;;;;;;10.23;3.28;;;13.40;99.90;;;;;;4950325;28;20069;-73
2023/03/23 10:33:10;;;;;;;;;;;13.40;99.90;;;;;;4958365;28;20035;-74
2023/03/23 10:35:42;;;;;;;7.53;2.80;;;13.60;99.90;;;;;;4942200;28;20347;-74
2023/03/23 10:38:23;;;;;;;8.55;3.10;;;13.80;99.90;;;;;;4974230;28;20074;-74
2023/03/23 10:41:11;;;;;;;8.45;2.47;;;14.70;99.90;;;;;;4958097;28;20047;-74
2023/03/23 10:43:37;;;;;;;8.10;2.42;;;15.50;99.90;;;;;;4958034;28;20057;-73
2023/03/23 10:46:22;;;;;;;7.97;2.42;;;16.30;99.90;;;;;;4958170;28;20039;-73
2023/03/23 10:48:50;;;;;;;6.45;2.13;;;16.80;99.90;;;;;;4973920;28;20072;-73
2023/03/23 10:51:20;;;;;;;8.18;2.60;;;16.80;99.90;;;;;;4957795;28;20043;-73
2023/03/23 10:53:52;;;;;;;8.50;2.30;;;17.00;99.90;;;;;;4957907;28;20049;-73
2023/03/23 10:56:34;;;;;;;9.90;2.83;;;16.90;99.90;;;;;;4958144;28;20042;-73
2023/03/23 10:59:00;;;;;;;8.48;2.63;;;16.10;99.90;;;;;;4958074;28;20043;-73
2023/03/23 11:01:34;;;;;;;9.50;2.25;;;15.50;99.90;;;;;;4957693;28;20113;-73
2023/03/23 11:04:01;;;;;;;8.30;2.65;;;14.90;99.90;;;;;;4957715;28;20042;-73
2023/03/23 11:06:35;;;;;;;6.65;2.60;;;14.50;99.90;;;;;;4957576;28;20039;-73
2023/03/23 11:09:09;;;;;;;8.05;1.98;;;14.60;99.90;;;;;;4957640;28;20106;-73
2023/03/23 11:11:42;;;;;;;6.57;2.53;;;14.60;99.90;;;;;;4941457;28;20520;-73
2023/03/23 11:14:24;;;;;;;9.15;2.45;;;14.50;99.90;;;;;;4957666;28;20086;-73
2023/03/23 11:17:00;;;;;;;9.02;2.70;;;14.10;99.90;;;;;;4957633;28;20074;-73
2023/03/23 11:19:36;;;;;;;9.65;2.75;;;13.70;99.90;;;;;;4957447;28;20081;-74
2023/03/23 11:22:05;;;;;;;8.45;3.00;;;13.80;99.90;;;;;;4957348;28;20062;-73
2023/03/23 11:24:43;;;;;;;9.52;3.08;;;14.70;99.90;;;;;;4973459;28;20035;-73
2023/03/23 11:27:10;;;;;;;7.40;2.58;;;15.50;99.90;;;;;;4957089;28;20043;-73
2023/03/23 11:29:48;;;;;;;6.85;2.00;;;16.30;99.90;;;;;;4941327;28;20082;-73
2023/03/23 11:32:15;;;;;;;5.65;2.00;;;16.90;99.90;;;;;;4957236;28;20403;-74
2023/03/23 11:34:44;;;;;;;7.88;2.22;;;17.30;99.90;;;;;;4941222;28;20082;-74
2023/03/23 11:37:24;;;;;;;11.45;2.42;;;17.40;99.90;;;;;;4957211;28;20462;-74
2023/03/23 11:39:59;;;;;;;9.80;2.60;;;17.50;99.90;;;;;;4940912;28;20039;-74
2023/03/23 11:42:35;;;;;;;9.38;2.22;;;17.50;99.90;;;;;;4955951;28;20054;-73
2023/03/23 11:45:16;;;;;;;7.13;2.70;;;17.00;99.90;;;;;;4957482;28;20121;-73
2023/03/23 11:48:08;;;;;;;8.05;2.65;;;16.20;99.90;;;;;;4956740;28;20402;-73
2023/03/23 11:50:44;;;;;;;10.73;2.50;;;15.60;99.90;;;;;;4972920;28;20039;-73
2023/03/23 11:53:24;;;;;;;9.73;3.05;;;15.40;99.90;;;;;;4956596;28;20046;-73
2023/03/23 11:55:55;;;;;;;9.85;2.97;;;15.40;99.90;;;;;;4956659;28;20039;-73
2023/03/23 11:58:22;;;;;;;9.75;2.55;;;15.20;99.90;;;;;;4940874;28;20138;-73
2023/03/23 12:01:03;;;;;;;9.38;2.80;;;15.90;99.90;;;;;;4940581;28;20056;-73
2023/03/23 12:03:59;;;;;;;9.70;2.13;;;16.90;99.90;;;;;;4956905;28;20058;-73
2023/03/23 12:06:43;;;;;;;9.00;2.05;;;17.30;99.90;;;;;;4940876;28;20042;-73
2023/03/23 12:09:34;;;;;;;8.80;2.15;;;16.80;99.90;;;;;;4956716;28;20162;-74
2023/03/23 12:12:18;;;;;;;6.85;2.42;;;16.80;99.90;;;;;;4956521;28;20046;-73
2023/03/23 12:15:07;;;;;;;11.27;2.40;;;17.10;99.90;;;;;;4956354;28;20046;-74
2023/03/23 12:17:39;;;;;;;10.55;2.75;;;16.80;99.90;;;;;;4947304;28;20404;-73
2023/03/23 12:20:29;;;;;;;6.82;1.90;;;16.40;99.90;;;;;;4956391;28;20126;-73
2023/03/23 12:23:01;;;;;;;5.82;1.95;;;16.40;99.90;;;;;;4956208;28;20050;-74
2023/03/23 12:25:29;;;;;;;6.13;2.00;;;16.80;99.90;;;;;;4972592;28;20474;-74
2023/03/23 12:28:15;;;;;;;9.52;2.58;;;16.70;99.90;;;;;;4972127;28;20043;-73
2023/03/23 12:30:58;;;;;;;8.05;2.53;;;16.20;99.90;;;;;;4955960;28;20154;-73
2023/03/23 12:33:53;;;;;;;7.57;2.30;;;15.50;99.90;;;;;;4956098;28;20047;-73
2023/03/23 12:36:57;;;;;;;8.38;2.40;;;15.10;99.90;;;;;;4972244;28;20126;-73
2023/03/23 12:39:34;;;;;;;;;;;14.80;99.90;;;;;;4898349;29;20103;-73
2023/03/23 12:42:31;;;;;;;10.95;2.60;;;14.60;99.90;;;;;;4948330;28;20063;-73
2023/03/23 12:45:18;;;;;;;9.55;2.90;;;14.80;99.90;;;;;;4940260;28;20447;-73
2023/03/23 12:48:02;;;;;;;10.25;2.40;;;15.70;99.90;;;;;;4939973;28;20043;-73
2023/03/23 12:50:48;;;;;;;7.10;1.90;;;16.80;99.90;;;;;;4955815;28;20089;-73
2023/03/23 12:53:21;;;;;;;7.43;1.88;;;17.60;99.90;;;;;;4955601;28;20105;-73
2023/03/23 12:55:49;;;;;;;8.50;2.03;;;18.30;99.90;;;;;;4955757;28;20043;-73
2023/03/23 12:58:26;;;;;;;7.45;1.85;;;18.40;99.90;;;;;;4955682;28;20440;-73
2023/03/23 13:01:06;;;;;;;6.32;2.15;;;18.50;99.90;;;;;;4955629;28;20047;-74
2023/03/23 13:03:50;;;;;;;6.65;1.75;;;18.70;91.50;;;;;;4956064;28;20065;-73
2023/03/23 13:06:32;;;;;;;8.57;2.60;;;18.60;95.10;;;;;;4939716;28;20055;-73
2023/03/23 13:09:24;;;;;;;9.27;1.88;;;18.50;95.80;;;;;;4955494;28;20159;-74
2023/03/23 13:11:51;;;;;;;6.15;1.55;;;18.30;88.80;;;;;;4947718;28;20138;-74
2023/03/23 13:14:41;;;;;;;8.32;1.65;;;17.90;91.50;;;;;;4939562;28;20051;-74
2023/03/23 13:17:22;;;;;;;8.38;1.73;;;17.70;91.60;;;;;;4956059;28;20046;-74
2023/03/23 13:20:06;;;;;;;7.07;2.33;;;17.90;95.60;;;;;;4955547;28;20054;-74
2023/03/23 13:23:01;;;;;;;7.20;2.30;;;18.00;98.70;;;;;;4940138;28;20042;-74
2023/03/23 13:25:36;;;;;;;10.00;2.00;;;17.70;93.50;;;;;;4955416;28;20046;-74
2023/03/23 13:28:02;;;;;;;7.10;1.83;;;17.20;97.60;;;;;;4939292;28;20039;-74
2023/03/23 13:30:28;;;;;;;6.97;1.58;;;16.70;99.90;;;;;;4955397;28;20039;-74
2023/03/23 13:33:12;;;;;;;6.63;2.20;;;16.10;99.90;;;;;;4955333;28;20046;-73
2023/03/23 13:35:41;;;;;;;7.95;2.60;;;15.60;99.90;;;;;;4955483;28;20081;-74
2023/03/23 13:38:30;;;;;;;7.40;1.80;;;15.20;99.90;;;;;;4939308;28;20054;-73
2023/03/23 13:40:57;;;;;;;9.60;2.40;;;15.00;99.90;;;;;;4939008;28;20093;-74
2023/03/23 13:43:34;;;;;;;7.47;2.25;;;14.90;99.90;;;;;;4955318;28;20097;-74
2023/03/23 13:46:29;;;;;;;9.65;2.58;;;14.70;99.90;;;;;;4955556;28;20058;-74
2023/03/23 13:49:10;;;;;;;10.48;2.72;;;14.60;99.90;;;;;;4955256;28;20039;-73
2023/03/23 13:51:42;;;;;;;9.55;3.08;;;14.40;99.90;;;;;;4971017;28;20568;-73
2023/03/23 13:54:24;;;;;;;10.80;2.55;;;14.10;99.90;;;;;;4971313;28;20041;-74
2023/03/23 13:56:55;;;;;;;9.23;2.80;;;13.90;99.90;;;;;;4955121;28;20035;-73
2023/03/23 13:59:27;;;;;;;9.38;3.17;;;13.70;99.90;;;;;;4955526;28;20035;-73
2023/03/23 14:02:13;;;;;;;3.88;1.60;;;13.40;99.90;;;;;;4971024;28;20050;-74
2023/03/23 14:04:38;;;;;;;5.90;1.98;;;13.10;99.90;;;;;;4972135;28;20398;-74
2023/03/23 14:07:12;;;;;;;6.18;1.67;;;13.00;99.90;;;;;;4942558;28;20034;-74